Hong Xiang 2 — BYBA — position and weather

sailwx.info

Track history (hours):
 
Tides and Currents Weather Stations Pressure Air Temp Water Temp Dewpoint Dewpoint Depression Visibility Wind Speed Wind Dir Waves Ship Positions

Hong Xiang 2

Last reported at 2015-Mar-29 06:33 UTC. Time now 2015-Mar-29 17:26 UTC.
Position N 22°57' E 113°33'.

Length 96 m; draft 4.8 m.

Type: Ship (hazmat cat A). MMSI: 413413000.

Date/timePositionNaut miles runAvg speedWind from/ knotsBaromVisibWave heightAir tempDewpointWater temp
2015-Mar-29 06:33N 22°57' E 113°33'9 8.3
2015-Mar-29 05:32N 22°49' E 113°36'29 9.6
2015-Mar-29 02:33N 22°22' E 113°47'9 9.2
2015-Mar-29 01:33N 22°13' E 113°47'10 9.9
2015-Mar-29 00:32N 22°03' E 113°45'6 0.3
2015-Mar-28 05:31N 21°59' E 113°41'0 0.0
2015-Mar-28 02:07N 21°59' E 113°41'0 0.0
2015-Mar-26 01:11N 21°59' E 113°41'26 1.1
2015-Mar-25 00:23N 21°55' E 113°13'0 0.0
2015-Mar-24 23:29N 21°55' E 113°13'0 0.0
2015-Mar-24 22:11N 21°55' E 113°13'0 0.0
2015-Mar-24 21:17N 21°55' E 113°13'0 0.0
2015-Mar-24 20:29N 21°55' E 113°13'1 1.5
2015-Mar-24 19:33N 21°54' E 113°13'2 1.4
2015-Mar-24 18:26N 21°53' E 113°11'0 0.0
2015-Mar-24 17:26N 21°53' E 113°11'0 0.0
2015-Mar-24 16:32N 21°53' E 113°11'0 0.0
2015-Mar-24 15:32N 21°53' E 113°11'0 0.0
2015-Mar-24 14:32N 21°53' E 113°11'0 0.1
2015-Mar-24 13:32N 21°53' E 113°11'0 0.0
2015-Mar-24 12:32N 21°53' E 113°11'0 0.0
2015-Mar-24 11:32N 21°53' E 113°11'0 0.0
2015-Mar-24 10:32N 21°53' E 113°11'0 0.1
2015-Mar-24 09:20N 21°53' E 113°11'0 0.0
2015-Mar-24 08:32N 21°53' E 113°11'2 1.8
2015-Mar-24 07:33N 21°52' E 113°13'40 1.5
2015-Mar-23 04:33N 22°09' E 113°52'9 9.1
2015-Mar-23 03:32N 22°18' E 113°48'9 9.3
2015-Mar-23 02:32N 22°27' E 113°45'19 9.8
2015-Mar-23 00:33N 22°46' E 113°39'1010.3
2015-Mar-22 23:33N 22°55' E 113°34'2 0.1
2015-Mar-22 08:11N 22°57' E 113°33'0 0.0
2015-Mar-22 02:08N 22°57' E 113°33'3 5.2
2015-Mar-22 01:33N 22°54' E 113°34'11 8.4
2015-Mar-22 00:12N 22°44' E 113°40'26 9.7
2015-Mar-21 21:33N 22°20' E 113°48'7 6.6
2015-Mar-21 20:33N 22°13' E 113°50'18 1.3
2015-Mar-21 06:30N 22°08' E 114°09'  
Track history (hours):
 
Tides and Currents Weather Stations Pressure Air Temp Water Temp Dewpoint Dewpoint Depression Visibility Wind Speed Wind Dir Waves Ship Positions

Hong Xiang 2

Last reported at 2015-Mar-29 06:33 UTC. Time now 2015-Mar-29 17:26 UTC.
Position N 22°57' E 113°33'.

Length 96 m; draft 4.8 m.

Type: Ship (hazmat cat A). MMSI: 413413000.

Date/timePositionNaut miles runAvg speedWind from/ knotsBaromVisibWave heightAir tempDewpointWater temp
2015-Mar-29 06:33N 22°57' E 113°33'9 8.3
2015-Mar-29 05:32N 22°49' E 113°36'29 9.6
2015-Mar-29 02:33N 22°22' E 113°47'9 9.2
2015-Mar-29 01:33N 22°13' E 113°47'10 9.9
2015-Mar-29 00:32N 22°03' E 113°45'6 0.3
2015-Mar-28 05:31N 21°59' E 113°41'0 0.0
2015-Mar-28 02:07N 21°59' E 113°41'0 0.0
2015-Mar-26 01:11N 21°59' E 113°41'26 1.1
2015-Mar-25 00:23N 21°55' E 113°13'0 0.0
2015-Mar-24 23:29N 21°55' E 113°13'0 0.0
2015-Mar-24 22:11N 21°55' E 113°13'0 0.0
2015-Mar-24 21:17N 21°55' E 113°13'0 0.0
2015-Mar-24 20:29N 21°55' E 113°13'1 1.5
2015-Mar-24 19:33N 21°54' E 113°13'2 1.4
2015-Mar-24 18:26N 21°53' E 113°11'0 0.0
2015-Mar-24 17:26N 21°53' E 113°11'0 0.0
2015-Mar-24 16:32N 21°53' E 113°11'0 0.0
2015-Mar-24 15:32N 21°53' E 113°11'0 0.0
2015-Mar-24 14:32N 21°53' E 113°11'0 0.1
2015-Mar-24 13:32N 21°53' E 113°11'0 0.0
2015-Mar-24 12:32N 21°53' E 113°11'0 0.0
2015-Mar-24 11:32N 21°53' E 113°11'0 0.0
2015-Mar-24 10:32N 21°53' E 113°11'0 0.1
2015-Mar-24 09:20N 21°53' E 113°11'0 0.0
2015-Mar-24 08:32N 21°53' E 113°11'2 1.8
2015-Mar-24 07:33N 21°52' E 113°13'40 1.5
2015-Mar-23 04:33N 22°09' E 113°52'9 9.1
2015-Mar-23 03:32N 22°18' E 113°48'9 9.3
2015-Mar-23 02:32N 22°27' E 113°45'19 9.8
2015-Mar-23 00:33N 22°46' E 113°39'1010.3
2015-Mar-22 23:33N 22°55' E 113°34'2 0.1
2015-Mar-22 08:11N 22°57' E 113°33'0 0.0
2015-Mar-22 02:08N 22°57' E 113°33'3 5.2
2015-Mar-22 01:33N 22°54' E 113°34'11 8.4
2015-Mar-22 00:12N 22°44' E 113°40'26 9.7
2015-Mar-21 21:33N 22°20' E 113°48'7 6.6
2015-Mar-21 20:33N 22°13' E 113°50'18 1.3
2015-Mar-21 06:30N 22°08' E 114°09'  

Dump ship's entire track history